sensor_id;sensor_type;location;lat;lon;timestamp;pressure;altitude;pressure_sealevel;temperature;humidity
65384;BME280;51986;52.788;41.368;2023-03-22T00:01:24;99013.91;;;2.64;63.09
65384;BME280;51986;52.788;41.368;2023-03-22T00:03:51;99012.44;;;2.66;62.87
65384;BME280;51986;52.788;41.368;2023-03-22T00:06:18;98999.91;;;2.72;62.75
65384;BME280;51986;52.788;41.368;2023-03-22T00:08:48;99000.25;;;2.70;62.78
65384;BME280;51986;52.788;41.368;2023-03-22T00:11:16;98994.00;;;2.75;63.03
65384;BME280;51986;52.788;41.368;2023-03-22T00:13:44;99025.31;;;2.78;62.63
65384;BME280;51986;52.788;41.368;2023-03-22T00:16:14;98995.59;;;2.60;62.52
65384;BME280;51986;52.788;41.368;2023-03-22T00:18:41;98988.53;;;2.60;62.97
65384;BME280;51986;52.788;41.368;2023-03-22T00:21:13;98985.84;;;2.57;62.62
65384;BME280;51986;52.788;41.368;2023-03-22T00:23:40;99004.22;;;2.64;62.56
65384;BME280;51986;52.788;41.368;2023-03-22T00:26:08;98981.16;;;2.63;62.30
65384;BME280;51986;52.788;41.368;2023-03-22T00:28:37;99000.66;;;2.72;62.58
65384;BME280;51986;52.788;41.368;2023-03-22T00:31:05;98992.34;;;2.67;62.38
65384;BME280;51986;52.788;41.368;2023-03-22T00:33:34;98995.81;;;2.51;62.53
65384;BME280;51986;52.788;41.368;2023-03-22T00:36:07;99011.16;;;2.56;61.91
65384;BME280;51986;52.788;41.368;2023-03-22T00:38:34;98981.75;;;2.56;62.22
65384;BME280;51986;52.788;41.368;2023-03-22T00:41:14;99007.50;;;2.61;62.15
65384;BME280;51986;52.788;41.368;2023-03-22T00:43:44;99018.06;;;2.68;62.03
65384;BME280;51986;52.788;41.368;2023-03-22T00:46:12;98999.41;;;2.66;61.91
65384;BME280;51986;52.788;41.368;2023-03-22T00:48:40;98982.19;;;2.58;62.12
65384;BME280;51986;52.788;41.368;2023-03-22T00:51:07;98992.34;;;2.67;61.59
65384;BME280;51986;52.788;41.368;2023-03-22T00:53:36;98987.16;;;2.67;62.14
65384;BME280;51986;52.788;41.368;2023-03-22T00:56:07;98999.66;;;2.57;62.30
65384;BME280;51986;52.788;41.368;2023-03-22T00:58:42;99003.47;;;2.64;62.10
65384;BME280;51986;52.788;41.368;2023-03-22T01:01:10;98993.66;;;2.57;62.12
65384;BME280;51986;52.788;41.368;2023-03-22T01:03:37;99006.94;;;2.71;62.54
65384;BME280;51986;52.788;41.368;2023-03-22T01:06:04;98987.66;;;2.53;62.37
65384;BME280;51986;52.788;41.368;2023-03-22T01:08:31;98998.41;;;2.51;62.57
65384;BME280;51986;52.788;41.368;2023-03-22T01:10:59;99005.72;;;2.65;62.45
65384;BME280;51986;52.788;41.368;2023-03-22T01:13:27;98991.88;;;2.61;62.24
65384;BME280;51986;52.788;41.368;2023-03-22T01:15:54;99028.06;;;2.66;62.24
65384;BME280;51986;52.788;41.368;2023-03-22T01:18:21;98984.78;;;2.58;62.61
65384;BME280;51986;52.788;41.368;2023-03-22T01:20:50;99016.16;;;2.65;62.37
65384;BME280;51986;52.788;41.368;2023-03-22T01:23:17;98997.09;;;2.61;62.55
65384;BME280;51986;52.788;41.368;2023-03-22T01:25:44;99009.25;;;2.53;62.48
65384;BME280;51986;52.788;41.368;2023-03-22T01:28:11;99002.31;;;2.61;62.19
65384;BME280;51986;52.788;41.368;2023-03-22T01:30:38;98999.84;;;2.68;62.80
65384;BME280;51986;52.788;41.368;2023-03-22T01:33:06;99013.63;;;2.69;61.97
65384;BME280;51986;52.788;41.368;2023-03-22T01:35:34;99015.03;;;2.66;62.38
65384;BME280;51986;52.788;41.368;2023-03-22T01:38:03;99018.06;;;2.68;62.21
65384;BME280;51986;52.788;41.368;2023-03-22T01:40:33;99025.13;;;2.68;62.13
65384;BME280;51986;52.788;41.368;2023-03-22T01:43:01;99026.22;;;2.67;62.37
65384;BME280;51986;52.788;41.368;2023-03-22T01:45:33;99038.47;;;2.66;62.69
65384;BME280;51986;52.788;41.368;2023-03-22T01:48:09;99021.78;;;2.67;62.76
65384;BME280;51986;52.788;41.368;2023-03-22T01:50:39;99014.84;;;2.55;62.29
65384;BME280;51986;52.788;41.368;2023-03-22T01:53:10;99011.84;;;2.53;62.47
65384;BME280;51986;52.788;41.368;2023-03-22T01:55:38;99008.34;;;2.65;62.04
65384;BME280;51986;52.788;41.368;2023-03-22T01:58:17;99030.53;;;2.78;61.98
65384;BME280;51986;52.788;41.368;2023-03-22T02:00:52;98998.84;;;2.53;61.67
65384;BME280;51986;52.788;41.368;2023-03-22T02:04:17;99038.41;;;2.82;62.06
65384;BME280;51986;52.788;41.368;2023-03-22T02:06:46;99030.47;;;2.75;61.80
65384;BME280;51986;52.788;41.368;2023-03-22T02:09:16;99020.31;;;2.70;62.31
65384;BME280;51986;52.788;41.368;2023-03-22T02:11:49;99040.88;;;2.75;62.22
65384;BME280;51986;52.788;41.368;2023-03-22T02:14:55;99013.25;;;2.70;62.21
65384;BME280;51986;52.788;41.368;2023-03-22T02:18:18;99014.22;;;2.81;61.80
65384;BME280;51986;52.788;41.368;2023-03-22T02:44:44;99011.47;;;2.74;61.80
65384;BME280;51986;52.788;41.368;2023-03-22T02:47:40;99030.09;;;2.76;61.96
65384;BME280;51986;52.788;41.368;2023-03-22T02:52:45;99022.25;;;2.73;62.07
65384;BME280;51986;52.788;41.368;2023-03-22T02:55:19;99018.59;;;2.77;61.69
65384;BME280;51986;52.788;41.368;2023-03-22T02:57:54;99015.88;;;2.70;62.20
65384;BME280;51986;52.788;41.368;2023-03-22T03:00:24;99045.69;;;2.73;62.19
65384;BME280;51986;52.788;41.368;2023-03-22T03:02:55;99028.59;;;2.75;61.81
65384;BME280;51986;52.788;41.368;2023-03-22T03:05:25;99026.56;;;2.65;61.91
65384;BME280;51986;52.788;41.368;2023-03-22T03:07:58;99027.50;;;2.76;62.13
65384;BME280;51986;52.788;41.368;2023-03-22T03:10:27;99045.47;;;2.81;61.91
65384;BME280;51986;52.788;41.368;2023-03-22T03:12:54;99034.25;;;2.77;61.83
65384;BME280;51986;52.788;41.368;2023-03-22T03:15:21;99033.28;;;2.66;61.83
65384;BME280;51986;52.788;41.368;2023-03-22T03:24:10;99049.56;;;3.02;61.15
65384;BME280;51986;52.788;41.368;2023-03-22T03:29:21;99053.75;;;3.29;60.24
65384;BME280;51986;52.788;41.368;2023-03-22T03:31:58;99042.81;;;3.47;59.77
65384;BME280;51986;52.788;41.368;2023-03-22T03:37:08;99065.72;;;3.83;58.26
65384;BME280;51986;52.788;41.368;2023-03-22T03:39:41;99074.34;;;4.14;57.41
65384;BME280;51986;52.788;41.368;2023-03-22T03:42:14;99054.31;;;4.22;57.36
65384;BME280;51986;52.788;41.368;2023-03-22T03:44:42;99054.25;;;4.45;56.65
65384;BME280;51986;52.788;41.368;2023-03-22T03:47:10;99044.03;;;4.66;56.34
65384;BME280;51986;52.788;41.368;2023-03-22T03:49:38;99067.69;;;4.80;55.92
65384;BME280;51986;52.788;41.368;2023-03-22T03:52:05;99067.75;;;4.84;55.91
65384;BME280;51986;52.788;41.368;2023-03-22T03:54:33;99075.13;;;5.12;54.68
65384;BME280;51986;52.788;41.368;2023-03-22T03:57:01;99070.59;;;5.09;54.49
65384;BME280;51986;52.788;41.368;2023-03-22T03:59:30;99076.03;;;5.34;54.30
65384;BME280;51986;52.788;41.368;2023-03-22T04:02:03;99062.41;;;5.55;53.60
65384;BME280;51986;52.788;41.368;2023-03-22T04:04:34;99067.69;;;5.62;53.52
65384;BME280;51986;52.788;41.368;2023-03-22T04:07:04;99055.31;;;5.55;53.54
65384;BME280;51986;52.788;41.368;2023-03-22T04:09:35;99073.63;;;5.59;53.21
65384;BME280;51986;52.788;41.368;2023-03-22T04:12:25;99081.66;;;5.84;52.71
65384;BME280;51986;52.788;41.368;2023-03-22T04:15:10;99073.81;;;5.87;53.04
65384;BME280;51986;52.788;41.368;2023-03-22T04:17:39;99087.34;;;5.96;52.81
65384;BME280;51986;52.788;41.368;2023-03-22T04:20:09;99071.66;;;6.00;53.04
65384;BME280;51986;52.788;41.368;2023-03-22T04:22:37;99101.59;;;5.99;52.90
65384;BME280;51986;52.788;41.368;2023-03-22T04:25:05;99106.00;;;5.91;53.02
65384;BME280;51986;52.788;41.368;2023-03-22T04:27:33;99097.84;;;6.00;53.05
65384;BME280;51986;52.788;41.368;2023-03-22T04:30:08;99092.22;;;6.02;52.78
65384;BME280;51986;52.788;41.368;2023-03-22T04:32:55;99101.63;;;6.03;52.98
65384;BME280;51986;52.788;41.368;2023-03-22T04:35:34;99129.78;;;6.24;52.78
65384;BME280;51986;52.788;41.368;2023-03-22T04:38:02;99097.91;;;6.11;52.39
65384;BME280;51986;52.788;41.368;2023-03-22T04:40:30;99117.38;;;6.13;53.13
65384;BME280;51986;52.788;41.368;2023-03-22T04:43:01;99121.16;;;6.19;53.30
65384;BME280;51986;52.788;41.368;2023-03-22T04:45:42;99122.69;;;6.24;52.33
65384;BME280;51986;52.788;41.368;2023-03-22T04:48:11;99119.00;;;6.32;52.62
65384;BME280;51986;52.788;41.368;2023-03-22T04:50:42;99126.53;;;6.44;52.38
65384;BME280;51986;52.788;41.368;2023-03-22T04:53:10;99123.63;;;6.64;52.23
65384;BME280;51986;52.788;41.368;2023-03-22T04:55:37;99118.34;;;6.57;52.32
65384;BME280;51986;52.788;41.368;2023-03-22T04:58:07;99113.13;;;6.64;52.33
65384;BME280;51986;52.788;41.368;2023-03-22T05:00:54;99135.72;;;6.86;52.07
65384;BME280;51986;52.788;41.368;2023-03-22T05:03:22;99134.97;;;6.93;51.49
65384;BME280;51986;52.788;41.368;2023-03-22T05:05:58;99139.47;;;6.89;52.52
65384;BME280;51986;52.788;41.368;2023-03-22T05:08:41;99150.72;;;6.89;52.39
65384;BME280;51986;52.788;41.368;2023-03-22T05:11:14;99135.03;;;7.04;52.70
65384;BME280;51986;52.788;41.368;2023-03-22T05:13:58;99129.41;;;7.16;51.99
65384;BME280;51986;52.788;41.368;2023-03-22T05:16:29;99144.81;;;7.28;51.91
65384;BME280;51986;52.788;41.368;2023-03-22T05:18:57;99118.19;;;7.08;51.72
65384;BME280;51986;52.788;41.368;2023-03-22T05:21:28;99135.47;;;7.38;51.83
65384;BME280;51986;52.788;41.368;2023-03-22T05:23:58;99122.31;;;7.23;51.50
65384;BME280;51986;52.788;41.368;2023-03-22T05:26:25;99135.50;;;7.70;51.46
65384;BME280;51986;52.788;41.368;2023-03-22T05:28:54;99123.47;;;7.83;50.85
65384;BME280;51986;52.788;41.368;2023-03-22T05:31:35;99139.19;;;8.12;50.32
65384;BME280;51986;52.788;41.368;2023-03-22T05:34:05;99142.16;;;8.32;49.95
65384;BME280;51986;52.788;41.368;2023-03-22T05:36:34;99145.88;;;8.41;49.23
65384;BME280;51986;52.788;41.368;2023-03-22T05:39:22;99132.00;;;8.48;49.17
65384;BME280;51986;52.788;41.368;2023-03-22T05:41:50;99135.75;;;8.40;49.68
65384;BME280;51986;52.788;41.368;2023-03-22T05:44:28;99149.19;;;8.81;48.88
65384;BME280;51986;52.788;41.368;2023-03-22T05:47:12;99143.00;;;9.13;48.20
65384;BME280;51986;52.788;41.368;2023-03-22T05:50:07;99128.63;;;9.28;47.67
65384;BME280;51986;52.788;41.368;2023-03-22T05:52:34;99148.41;;;9.50;47.02
65384;BME280;51986;52.788;41.368;2023-03-22T05:55:27;99150.94;;;9.61;47.12
65384;BME280;51986;52.788;41.368;2023-03-22T05:57:58;99169.63;;;9.81;46.85
65384;BME280;51986;52.788;41.368;2023-03-22T06:00:26;99159.41;;;9.35;47.19
65384;BME280;51986;52.788;41.368;2023-03-22T06:03:22;99153.50;;;9.20;47.81
65384;BME280;51986;52.788;41.368;2023-03-22T06:06:12;99158.69;;;9.27;47.71
65384;BME280;51986;52.788;41.368;2023-03-22T06:08:51;99153.09;;;9.21;48.07
65384;BME280;51986;52.788;41.368;2023-03-22T06:11:22;99156.84;;;9.24;47.23
65384;BME280;51986;52.788;41.368;2023-03-22T06:13:49;99174.22;;;9.07;48.30
65384;BME280;51986;52.788;41.368;2023-03-22T06:16:18;99160.88;;;9.43;47.58
65384;BME280;51986;52.788;41.368;2023-03-22T06:18:46;99177.44;;;9.36;47.53
65384;BME280;51986;52.788;41.368;2023-03-22T06:21:14;99194.63;;;9.55;47.27
65384;BME280;51986;52.788;41.368;2023-03-22T06:23:41;99189.19;;;9.80;46.78
65384;BME280;51986;52.788;41.368;2023-03-22T06:26:09;99165.06;;;9.85;46.65
65384;BME280;51986;52.788;41.368;2023-03-22T06:28:40;99177.63;;;9.67;47.04
65384;BME280;51986;52.788;41.368;2023-03-22T06:31:08;99193.19;;;9.47;46.81
65384;BME280;51986;52.788;41.368;2023-03-22T06:33:50;99173.16;;;8.97;48.29
65384;BME280;51986;52.788;41.368;2023-03-22T06:36:34;99169.78;;;8.93;47.80
65384;BME280;51986;52.788;41.368;2023-03-22T06:39:19;99173.94;;;8.84;48.75
65384;BME280;51986;52.788;41.368;2023-03-22T06:41:57;99198.78;;;8.72;48.94
65384;BME280;51986;52.788;41.368;2023-03-22T06:44:25;99203.28;;;8.61;49.33
65384;BME280;51986;52.788;41.368;2023-03-22T06:47:04;99209.38;;;8.29;50.26
65384;BME280;51986;52.788;41.368;2023-03-22T06:49:49;99202.25;;;8.19;50.05
65384;BME280;51986;52.788;41.368;2023-03-22T06:52:21;99189.13;;;8.15;50.80
65384;BME280;51986;52.788;41.368;2023-03-22T06:54:52;99193.63;;;7.97;51.12
65384;BME280;51986;52.788;41.368;2023-03-22T06:57:21;99188.03;;;7.84;50.71
65384;BME280;51986;52.788;41.368;2023-03-22T06:59:48;99201.13;;;8.13;50.71
65384;BME280;51986;52.788;41.368;2023-03-22T07:02:18;99198.13;;;8.00;51.10
65384;BME280;51986;52.788;41.368;2023-03-22T07:05:21;99215.78;;;8.14;50.18
65384;BME280;51986;52.788;41.368;2023-03-22T07:07:48;99202.63;;;8.07;50.67
65384;BME280;51986;52.788;41.368;2023-03-22T07:10:15;99224.41;;;8.00;50.81
65384;BME280;51986;52.788;41.368;2023-03-22T07:12:42;99227.00;;;7.82;51.71
65384;BME280;51986;52.788;41.368;2023-03-22T07:15:13;99219.13;;;7.93;51.17
65384;BME280;51986;52.788;41.368;2023-03-22T07:17:51;99221.00;;;7.89;50.99
65384;BME280;51986;52.788;41.368;2023-03-22T07:20:20;99219.09;;;7.64;51.40
65384;BME280;51986;52.788;41.368;2023-03-22T07:22:51;99241.66;;;7.87;52.01
65384;BME280;51986;52.788;41.368;2023-03-22T07:25:23;99226.25;;;7.82;51.18
65384;BME280;51986;52.788;41.368;2023-03-22T07:28:03;99242.78;;;8.21;50.42
65384;BME280;51986;52.788;41.368;2023-03-22T07:30:30;99245.03;;;8.30;50.82
65384;BME280;51986;52.788;41.368;2023-03-22T07:32:57;99249.91;;;8.24;51.14
65384;BME280;51986;52.788;41.368;2023-03-22T07:35:25;99224.75;;;8.31;50.64
65384;BME280;51986;52.788;41.368;2023-03-22T07:37:58;99261.16;;;8.53;50.32
65384;BME280;51986;52.788;41.368;2023-03-22T07:40:33;99246.84;;;8.87;49.85
65384;BME280;51986;52.788;41.368;2023-03-22T07:43:01;99259.66;;;8.63;49.55
65384;BME280;51986;52.788;41.368;2023-03-22T07:45:41;99262.66;;;8.58;49.96
65384;BME280;51986;52.788;41.368;2023-03-22T07:48:26;99262.63;;;8.65;50.16
65384;BME280;51986;52.788;41.368;2023-03-22T07:51:11;99256.63;;;8.65;49.81
65384;BME280;51986;52.788;41.368;2023-03-22T07:53:38;99272.41;;;8.68;49.88
65384;BME280;51986;52.788;41.368;2023-03-22T07:56:06;99252.50;;;8.71;49.66
65384;BME280;51986;52.788;41.368;2023-03-22T07:58:33;99264.13;;;8.84;49.44
65384;BME280;51986;52.788;41.368;2023-03-22T08:01:05;99266.38;;;8.93;49.42
65384;BME280;51986;52.788;41.368;2023-03-22T08:03:54;99246.06;;;9.04;48.81
65384;BME280;51986;52.788;41.368;2023-03-22T08:06:39;99250.88;;;9.13;49.07
65384;BME280;51986;52.788;41.368;2023-03-22T08:09:06;99250.47;;;9.25;48.75
65384;BME280;51986;52.788;41.368;2023-03-22T08:11:34;99265.78;;;9.44;48.52
65384;BME280;51986;52.788;41.368;2023-03-22T08:14:01;99270.72;;;9.42;48.47
65384;BME280;51986;52.788;41.368;2023-03-22T08:16:31;99263.91;;;9.41;48.25
65384;BME280;51986;52.788;41.368;2023-03-22T08:18:59;99276.19;;;9.73;47.52
65384;BME280;51986;52.788;41.368;2023-03-22T08:21:28;99257.97;;;9.96;47.58
65384;BME280;51986;52.788;41.368;2023-03-22T08:23:56;99268.28;;;9.73;47.40
65384;BME280;51986;52.788;41.368;2023-03-22T08:26:23;99255.38;;;9.89;46.87
65384;BME280;51986;52.788;41.368;2023-03-22T08:28:52;99274.84;;;10.06;46.32
65384;BME280;51986;52.788;41.368;2023-03-22T08:31:19;99261.75;;;9.95;46.94
65384;BME280;51986;52.788;41.368;2023-03-22T08:33:46;99259.88;;;9.92;46.73
65384;BME280;51986;52.788;41.368;2023-03-22T08:36:16;99270.34;;;9.99;47.27
65384;BME280;51986;52.788;41.368;2023-03-22T08:38:54;99240.59;;;10.02;46.46
65384;BME280;51986;52.788;41.368;2023-03-22T08:41:31;99247.63;;;10.20;47.00
65384;BME280;51986;52.788;41.368;2023-03-22T08:43:58;99273.09;;;10.37;45.46
65384;BME280;51986;52.788;41.368;2023-03-22T08:46:25;99269.53;;;10.10;46.43
65384;BME280;51986;52.788;41.368;2023-03-22T08:48:52;99282.19;;;10.29;45.85
65384;BME280;51986;52.788;41.368;2023-03-22T08:51:28;99277.69;;;10.26;46.43
65384;BME280;51986;52.788;41.368;2023-03-22T08:54:04;99272.31;;;10.40;45.64
65384;BME280;51986;52.788;41.368;2023-03-22T08:56:50;99276.88;;;10.77;45.16
65384;BME280;51986;52.788;41.368;2023-03-22T08:59:49;99279.16;;;10.75;44.54
65384;BME280;51986;52.788;41.368;2023-03-22T09:02:28;99286.81;;;11.00;45.13
65384;BME280;51986;52.788;41.368;2023-03-22T09:04:57;99277.31;;;11.06;44.51
65384;BME280;51986;52.788;41.368;2023-03-22T09:07:24;99282.16;;;11.12;44.41
65384;BME280;51986;52.788;41.368;2023-03-22T09:10:01;99269.00;;;11.08;44.48
65384;BME280;51986;52.788;41.368;2023-03-22T09:12:30;99271.00;;;11.31;44.14
65384;BME280;51986;52.788;41.368;2023-03-22T09:14:57;99283.09;;;11.86;43.51
65384;BME280;51986;52.788;41.368;2023-03-22T09:17:26;99265.28;;;12.17;42.87
65384;BME280;51986;52.788;41.368;2023-03-22T09:19:53;99269.41;;;12.18;42.56
65384;BME280;51986;52.788;41.368;2023-03-22T09:22:38;99271.81;;;12.09;42.14
65384;BME280;51986;52.788;41.368;2023-03-22T09:25:10;99276.94;;;11.96;41.98
65384;BME280;51986;52.788;41.368;2023-03-22T09:27:41;99271.13;;;12.28;41.56
65384;BME280;51986;52.788;41.368;2023-03-22T09:30:08;99271.09;;;12.32;42.11
65384;BME280;51986;52.788;41.368;2023-03-22T09:32:36;99240.50;;;12.31;41.86
65384;BME280;51986;52.788;41.368;2023-03-22T09:35:04;99274.19;;;12.50;41.14
65384;BME280;51986;52.788;41.368;2023-03-22T09:37:39;99274.53;;;12.72;41.34
65384;BME280;51986;52.788;41.368;2023-03-22T09:40:06;99271.22;;;12.88;40.33
65384;BME280;51986;52.788;41.368;2023-03-22T09:42:46;99271.91;;;12.49;42.20
65384;BME280;51986;52.788;41.368;2023-03-22T09:45:24;99252.75;;;12.65;41.83
65384;BME280;51986;52.788;41.368;2023-03-22T09:47:53;99252.75;;;12.65;42.32
65384;BME280;51986;52.788;41.368;2023-03-22T09:50:24;99239.31;;;12.55;42.03
65384;BME280;51986;52.788;41.368;2023-03-22T09:52:52;99260.03;;;12.37;42.70
65384;BME280;51986;52.788;41.368;2023-03-22T10:06:27;99270.41;;;12.91;41.36
65384;BME280;51986;52.788;41.368;2023-03-22T10:12:08;99248.69;;;12.60;42.26
65384;BME280;51986;52.788;41.368;2023-03-22T10:15:05;99245.50;;;12.69;42.38
65384;BME280;51986;52.788;41.368;2023-03-22T10:17:35;99261.22;;;12.56;42.07
65384;BME280;51986;52.788;41.368;2023-03-22T10:23:05;99261.53;;;13.01;41.57
65384;BME280;51986;52.788;41.368;2023-03-22T10:25:39;99255.63;;;13.13;41.33
65384;BME280;51986;52.788;41.368;2023-03-22T10:28:17;99250.06;;;12.88;41.73
65384;BME280;51986;52.788;41.368;2023-03-22T10:30:49;99266.22;;;13.13;41.72
65384;BME280;51986;52.788;41.368;2023-03-22T10:33:38;99246.97;;;13.29;41.91
65384;BME280;51986;52.788;41.368;2023-03-22T10:36:11;99231.19;;;13.26;41.77
65384;BME280;51986;52.788;41.368;2023-03-22T10:38:45;99268.09;;;13.33;41.23
65384;BME280;51986;52.788;41.368;2023-03-22T10:41:19;99262.00;;;13.36;40.74
65384;BME280;51986;52.788;41.368;2023-03-22T10:43:59;99248.31;;;13.37;41.20
65384;BME280;51986;52.788;41.368;2023-03-22T10:46:34;99226.97;;;13.45;40.36
65384;BME280;51986;52.788;41.368;2023-03-22T10:49:03;99256.38;;;13.50;40.79
65384;BME280;51986;52.788;41.368;2023-03-22T10:51:39;99242.06;;;13.48;41.18
65384;BME280;51986;52.788;41.368;2023-03-22T10:54:12;99224.72;;;13.43;40.57
65384;BME280;51986;52.788;41.368;2023-03-22T10:56:39;99249.25;;;13.47;41.07
65384;BME280;51986;52.788;41.368;2023-03-22T10:59:06;99242.91;;;13.61;40.75
65384;BME280;51986;52.788;41.368;2023-03-22T11:01:36;99277.72;;;13.79;40.51
65384;BME280;51986;52.788;41.368;2023-03-22T11:04:13;99253.78;;;13.30;41.23
65384;BME280;51986;52.788;41.368;2023-03-22T11:06:53;99257.56;;;13.29;41.03
65384;BME280;51986;52.788;41.368;2023-03-22T11:09:23;99258.47;;;13.23;41.67
65384;BME280;51986;52.788;41.368;2023-03-22T11:11:52;99252.81;;;13.41;41.57
65384;BME280;51986;52.788;41.368;2023-03-22T11:14:58;99262.19;;;13.61;41.91
65384;BME280;51986;52.788;41.368;2023-03-22T11:17:25;99253.94;;;13.39;41.68
65384;BME280;51986;52.788;41.368;2023-03-22T11:19:58;99223.13;;;13.29;41.66
65384;BME280;51986;52.788;41.368;2023-03-22T11:22:36;99224.25;;;13.48;41.82
65384;BME280;51986;52.788;41.368;2023-03-22T11:25:28;99220.78;;;13.51;41.63
65384;BME280;51986;52.788;41.368;2023-03-22T11:28:27;99237.19;;;13.62;41.87
65384;BME280;51986;52.788;41.368;2023-03-22T11:31:03;99253.91;;;13.59;41.97
65384;BME280;51986;52.788;41.368;2023-03-22T11:33:31;99246.84;;;13.53;41.52
65384;BME280;51986;52.788;41.368;2023-03-22T11:36:01;99237.66;;;13.57;41.22
65384;BME280;51986;52.788;41.368;2023-03-22T11:38:39;99238.03;;;13.59;41.57
65384;BME280;51986;52.788;41.368;2023-03-22T11:44:00;99241.16;;;13.87;41.16
65384;BME280;51986;52.788;41.368;2023-03-22T11:46:29;99234.13;;;13.64;41.61
65384;BME280;51986;52.788;41.368;2023-03-22T11:48:59;99275.13;;;13.92;40.55
65384;BME280;51986;52.788;41.368;2023-03-22T11:51:38;99251.69;;;13.74;40.95
65384;BME280;51986;52.788;41.368;2023-03-22T11:54:07;99263.53;;;13.70;41.63
65384;BME280;51986;52.788;41.368;2023-03-22T11:56:39;99253.00;;;13.66;41.27
65384;BME280;51986;52.788;41.368;2023-03-22T12:04:15;99245.31;;;13.72;41.41
65384;BME280;51986;52.788;41.368;2023-03-22T12:06:43;99247.47;;;13.93;41.17
65384;BME280;51986;52.788;41.368;2023-03-22T12:11:44;99236.44;;;13.62;42.05
65384;BME280;51986;52.788;41.368;2023-03-22T12:14:21;99260.56;;;13.84;41.46
65384;BME280;51986;52.788;41.368;2023-03-22T12:16:54;99241.81;;;13.91;41.50
65384;BME280;51986;52.788;41.368;2023-03-22T12:22:31;99245.66;;;13.90;41.00
65384;BME280;51986;52.788;41.368;2023-03-22T12:24:59;99251.44;;;14.01;41.00
65384;BME280;51986;52.788;41.368;2023-03-22T12:27:30;99240.81;;;14.01;41.05
65384;BME280;51986;52.788;41.368;2023-03-22T12:32:36;99258.25;;;13.70;42.54
65384;BME280;51986;52.788;41.368;2023-03-22T12:35:09;99257.06;;;13.54;42.30
65384;BME280;51986;52.788;41.368;2023-03-22T12:37:48;99266.44;;;13.39;42.37
65384;BME280;51986;52.788;41.368;2023-03-22T12:40:36;99271.78;;;13.19;42.68
65384;BME280;51986;52.788;41.368;2023-03-22T12:43:12;99259.72;;;12.98;43.01
65384;BME280;51986;52.788;41.368;2023-03-22T12:45:51;99262.81;;;12.93;43.40
65384;BME280;51986;52.788;41.368;2023-03-22T12:50:59;99271.72;;;12.83;43.98
65384;BME280;51986;52.788;41.368;2023-03-22T12:53:35;99262.38;;;12.98;44.34
65384;BME280;51986;52.788;41.368;2023-03-22T12:56:03;99268.97;;;12.86;44.39
65384;BME280;51986;52.788;41.368;2023-03-22T12:58:30;99260.75;;;12.81;44.00
65384;BME280;51986;52.788;41.368;2023-03-22T13:01:29;99258.75;;;12.88;44.32
65384;BME280;51986;52.788;41.368;2023-03-22T13:03:59;99261.38;;;12.88;43.57
65384;BME280;51986;52.788;41.368;2023-03-22T13:09:15;99263.63;;;12.70;44.77
65384;BME280;51986;52.788;41.368;2023-03-22T13:11:48;99275.34;;;12.69;44.61
65384;BME280;51986;52.788;41.368;2023-03-22T13:20:22;99287.66;;;12.79;45.09
65384;BME280;51986;52.788;41.368;2023-03-22T13:32:50;99300.66;;;12.00;46.45
65384;BME280;51986;52.788;41.368;2023-03-22T13:38:25;99300.81;;;11.89;46.43
65384;BME280;51986;52.788;41.368;2023-03-22T14:02:01;99303.06;;;11.60;47.08
65384;BME280;51986;52.788;41.368;2023-03-22T14:04:48;99309.03;;;11.37;47.64
65384;BME280;51986;52.788;41.368;2023-03-22T14:09:58;99327.06;;;11.42;47.76
65384;BME280;51986;52.788;41.368;2023-03-22T14:15:03;99312.97;;;11.22;48.69
65384;BME280;51986;52.788;41.368;2023-03-22T14:17:38;99311.25;;;11.39;48.60
65384;BME280;51986;52.788;41.368;2023-03-22T14:20:19;99316.53;;;11.39;48.00
65384;BME280;51986;52.788;41.368;2023-03-22T14:23:07;99326.75;;;11.37;48.17
65384;BME280;51986;52.788;41.368;2023-03-22T14:25:38;99303.72;;;11.37;47.87
65384;BME280;51986;52.788;41.368;2023-03-22T14:28:05;99322.75;;;11.25;48.38
65384;BME280;51986;52.788;41.368;2023-03-22T14:33:04;99323.69;;;11.42;48.41
65384;BME280;51986;52.788;41.368;2023-03-22T14:35:34;99342.53;;;11.44;48.15
65384;BME280;51986;52.788;41.368;2023-03-22T14:38:15;99340.28;;;11.42;48.71
65384;BME280;51986;52.788;41.368;2023-03-22T14:40:43;99330.19;;;11.33;48.56
65384;BME280;51986;52.788;41.368;2023-03-22T14:46:21;99341.88;;;11.32;49.39
65384;BME280;51986;52.788;41.368;2023-03-22T14:48:51;99337.88;;;11.21;48.98
65384;BME280;51986;52.788;41.368;2023-03-22T14:51:21;99327.94;;;11.32;49.15
65384;BME280;51986;52.788;41.368;2023-03-22T14:53:51;99356.66;;;11.30;49.55
65384;BME280;51986;52.788;41.368;2023-03-22T14:56:25;99352.44;;;11.32;49.03
65384;BME280;51986;52.788;41.368;2023-03-22T14:58:55;99360.03;;;11.30;49.49
65384;BME280;51986;52.788;41.368;2023-03-22T15:01:33;99348.81;;;11.19;49.91
65384;BME280;51986;52.788;41.368;2023-03-22T15:04:05;99341.72;;;11.16;49.35
65384;BME280;51986;52.788;41.368;2023-03-22T15:06:39;99354.94;;;11.13;50.15
65384;BME280;51986;52.788;41.368;2023-03-22T15:09:10;99350.16;;;11.00;50.32
65384;BME280;51986;52.788;41.368;2023-03-22T15:11:38;99351.66;;;11.01;49.71
65384;BME280;51986;52.788;41.368;2023-03-22T15:14:06;99368.25;;;11.02;49.68
65384;BME280;51986;52.788;41.368;2023-03-22T15:16:35;99367.25;;;10.85;50.21
65384;BME280;51986;52.788;41.368;2023-03-22T15:19:03;99378.94;;;10.88;50.63
65384;BME280;51986;52.788;41.368;2023-03-22T15:21:30;99353.28;;;10.88;50.26
65384;BME280;51986;52.788;41.368;2023-03-22T15:24:47;99343.69;;;10.67;50.94
65384;BME280;51986;52.788;41.368;2023-03-22T15:27:10;99369.56;;;10.79;50.46
65384;BME280;51986;52.788;41.368;2023-03-22T15:29:40;99358.69;;;10.77;50.41
65384;BME280;51986;52.788;41.368;2023-03-22T15:32:14;99377.88;;;10.81;50.31
65384;BME280;51986;52.788;41.368;2023-03-22T15:34:41;99390.69;;;10.79;50.98